createdAt,value
2023-04-13T00:02:21.468Z,20.60
2023-04-13T00:04:50.884Z,23.70
2023-04-13T00:07:18.761Z,18.33
2023-04-13T00:09:47.439Z,19.00
2023-04-13T00:12:21.377Z,18.50
2023-04-13T00:14:50.986Z,17.52
2023-04-13T00:17:18.068Z,18.55
2023-04-13T00:19:47.985Z,17.10
2023-04-13T00:22:15.582Z,17.55
2023-04-13T00:24:44.170Z,16.83
2023-04-13T00:27:11.140Z,17.55
2023-04-13T00:29:38.404Z,19.40
2023-04-13T00:32:05.444Z,17.42
2023-04-13T00:34:32.388Z,19.52
2023-04-13T00:37:02.168Z,22.02
2023-04-13T00:39:31.375Z,19.90
2023-04-13T00:42:02.264Z,18.17
2023-04-13T00:44:30.816Z,16.70
2023-04-13T00:46:57.813Z,18.10
2023-04-13T00:49:24.780Z,17.88
2023-04-13T00:51:51.711Z,19.10
2023-04-13T00:54:19.045Z,16.98
2023-04-13T00:56:46.179Z,16.05
2023-04-13T00:59:13.179Z,17.25
2023-04-13T01:01:46.896Z,17.00
2023-04-13T01:04:14.162Z,17.60
2023-04-13T01:06:45.103Z,20.70
2023-04-13T01:09:15.553Z,16.83
2023-04-13T01:11:49.427Z,18.77
2023-04-13T01:14:26.359Z,18.10
2023-04-13T01:16:59.224Z,16.40
2023-04-13T01:19:59.846Z,15.23
2023-04-13T01:22:30.525Z,17.10
2023-04-13T01:24:58.015Z,14.27
2023-04-13T01:27:42.350Z,17.17
2023-04-13T01:30:13.596Z,15.27
2023-04-13T01:32:42.264Z,16.95
2023-04-13T01:35:11.906Z,15.07
2023-04-13T01:37:43.349Z,18.40
2023-04-13T01:40:15.192Z,15.43
2023-04-13T01:42:47.910Z,15.32
2023-04-13T01:45:23.556Z,16.55
2023-04-13T01:48:11.847Z,21.17
2023-04-13T01:51:08.679Z,18.75
2023-04-13T01:53:49.204Z,27.70
2023-04-13T01:56:19.355Z,23.80
2023-04-13T01:58:52.049Z,25.95
2023-04-13T02:01:19.812Z,21.02
2023-04-13T02:03:46.959Z,18.90
2023-04-13T02:06:14.644Z,16.30
2023-04-13T02:08:43.033Z,21.45
2023-04-13T02:11:10.303Z,20.77
2023-04-13T02:13:37.890Z,20.23
2023-04-13T02:16:26.138Z,25.17
2023-04-13T02:18:53.072Z,35.42
2023-04-13T02:21:20.844Z,34.90
2023-04-13T02:23:49.415Z,34.63
2023-04-13T02:26:16.544Z,29.30
2023-04-13T02:28:43.570Z,25.23
2023-04-13T02:31:10.529Z,19.92
2023-04-13T02:33:37.854Z,23.42
2023-04-13T02:36:05.462Z,21.35
2023-04-13T02:38:39.720Z,22.85
2023-04-13T02:41:13.656Z,19.85
2023-04-13T02:43:40.818Z,17.63
2023-04-13T02:46:08.864Z,19.25
2023-04-13T02:48:38.757Z,18.80
2023-04-13T02:51:07.061Z,17.27
2023-04-13T02:53:38.112Z,19.73
2023-04-13T02:56:07.799Z,23.83
2023-04-13T02:58:35.252Z,25.27
2023-04-13T03:01:06.705Z,25.23
2023-04-13T03:03:34.796Z,22.80
2023-04-13T03:06:02.149Z,25.88
2023-04-13T03:08:46.368Z,24.35
2023-04-13T03:11:23.635Z,20.13
2023-04-13T03:14:01.601Z,22.15
2023-04-13T03:16:30.701Z,22.92
2023-04-13T03:18:58.220Z,17.80
2023-04-13T03:21:26.296Z,20.95
2023-04-13T03:24:05.392Z,19.83
2023-04-13T03:26:32.697Z,18.70
2023-04-13T03:29:04.203Z,18.88
2023-04-13T03:31:35.288Z,23.77
2023-04-13T03:34:02.388Z,20.00
2023-04-13T03:36:29.706Z,19.92
2023-04-13T03:38:58.110Z,20.63
2023-04-13T03:41:27.690Z,16.80
2023-04-13T03:43:54.663Z,19.10
2023-04-13T03:46:22.080Z,19.70
2023-04-13T03:48:49.493Z,19.80
2023-04-13T03:51:21.873Z,17.98
2023-04-13T03:53:50.831Z,16.38
2023-04-13T03:56:23.903Z,22.00
2023-04-13T03:58:55.441Z,24.92
2023-04-13T04:01:26.075Z,25.63
2023-04-13T04:03:57.240Z,20.88
2023-04-13T04:06:29.480Z,24.55
2023-04-13T04:09:07.517Z,20.15
2023-04-13T04:11:40.699Z,19.83
2023-04-13T04:14:08.849Z,25.17
2023-04-13T04:16:35.943Z,18.75
2023-04-13T04:19:09.466Z,21.95
2023-04-13T04:21:37.004Z,24.27
2023-04-13T04:24:22.776Z,20.00
2023-04-13T04:26:55.174Z,22.17
2023-04-13T04:29:34.197Z,20.25
2023-04-13T04:32:11.134Z,21.40
2023-04-13T04:34:41.014Z,22.63
2023-04-13T04:37:20.229Z,23.55
2023-04-13T04:39:57.886Z,24.02
2023-04-13T04:42:25.959Z,21.65
2023-04-13T04:44:56.497Z,24.42
2023-04-13T04:47:30.663Z,27.75
2023-04-13T04:50:10.038Z,19.83
2023-04-13T04:52:42.688Z,23.23
2023-04-13T04:55:12.616Z,20.00
2023-04-13T04:57:41.476Z,29.60
2023-04-13T05:00:10.896Z,23.75
2023-04-13T05:02:40.207Z,24.98
2023-04-13T05:05:10.453Z,26.55
2023-04-13T05:07:38.373Z,22.48
2023-04-13T05:10:07.784Z,34.97
2023-04-13T05:12:37.934Z,29.30
2023-04-13T05:15:06.497Z,20.77
2023-04-13T05:17:36.416Z,26.05
2023-04-13T05:20:07.294Z,24.67
2023-04-13T05:22:52.991Z,23.15
2023-04-13T05:25:20.070Z,25.00
2023-04-13T05:27:48.088Z,32.63
2023-04-13T05:30:15.173Z,35.97
2023-04-13T05:32:44.120Z,27.17
2023-04-13T05:35:11.704Z,23.50
2023-04-13T05:37:40.208Z,21.88
2023-04-13T05:40:14.124Z,28.17
2023-04-13T05:42:42.781Z,32.30
2023-04-13T05:45:12.228Z,25.95
2023-04-13T05:47:54.685Z,25.95
2023-04-13T05:50:21.777Z,25.90
2023-04-13T05:52:48.796Z,25.65
2023-04-13T05:55:16.475Z,23.92
2023-04-13T05:57:48.478Z,25.90
2023-04-13T06:00:18.964Z,26.48
2023-04-13T06:02:56.924Z,26.10
2023-04-13T06:05:24.349Z,28.60
2023-04-13T06:07:51.770Z,29.08
2023-04-13T06:10:19.655Z,15.50
2023-04-13T06:12:48.777Z,24.27
2023-04-13T06:15:15.822Z,25.40
2023-04-13T06:17:42.915Z,15.45
2023-04-13T06:20:10.954Z,24.30
2023-04-13T06:22:37.937Z,15.43
2023-04-13T06:25:05.569Z,22.00
2023-04-13T06:27:35.358Z,20.00
2023-04-13T06:30:02.674Z,15.60
2023-04-13T06:32:33.201Z,24.95
2023-04-13T06:35:00.743Z,21.05
2023-04-13T06:37:35.180Z,21.05
2023-04-13T06:40:12.929Z,16.52
2023-04-13T06:42:47.272Z,16.15
2023-04-13T06:45:33.826Z,19.23
2023-04-13T06:48:07.073Z,18.38
2023-04-13T06:50:35.326Z,19.88
2023-04-13T06:53:04.068Z,12.95
2023-04-13T06:55:31.241Z,16.63
2023-04-13T06:57:58.736Z,18.98
2023-04-13T07:00:30.036Z,19.58
2023-04-13T07:02:58.903Z,12.77
2023-04-13T07:05:26.369Z,12.93
2023-04-13T07:07:56.388Z,10.80
2023-04-13T07:10:23.642Z,11.35
2023-04-13T07:12:52.229Z,13.27
2023-04-13T07:15:22.261Z,9.02
2023-04-13T07:17:52.600Z,12.70
2023-04-13T07:20:19.781Z,11.55
2023-04-13T07:22:47.937Z,11.57
2023-04-13T07:25:14.997Z,8.60
2023-04-13T07:27:41.842Z,8.55
2023-04-13T07:30:09.221Z,8.63
2023-04-13T07:32:41.493Z,13.48
2023-04-13T07:35:10.186Z,9.45
2023-04-13T07:37:39.145Z,11.57
2023-04-13T07:40:09.048Z,10.68
2023-04-13T07:42:36.796Z,10.68
2023-04-13T07:45:04.018Z,11.57
2023-04-13T07:47:32.573Z,11.82
2023-04-13T07:50:06.304Z,13.75
2023-04-13T07:52:33.879Z,12.05
2023-04-13T07:55:02.838Z,13.15
2023-04-13T07:57:33.577Z,11.77
2023-04-13T08:00:05.156Z,12.45
2023-04-13T08:02:41.811Z,14.35
2023-04-13T08:05:13.594Z,13.68
2023-04-13T08:07:42.189Z,12.52
2023-04-13T08:10:09.712Z,14.43
2023-04-13T08:12:36.765Z,16.40
2023-04-13T08:15:05.912Z,13.25
2023-04-13T08:17:34.083Z,15.18
2023-04-13T08:20:01.243Z,18.48
2023-04-13T08:22:53.304Z,12.23
2023-04-13T08:25:21.212Z,12.13
2023-04-13T08:27:48.201Z,11.18
2023-04-13T08:30:15.273Z,14.02
2023-04-13T08:32:49.566Z,10.85
2023-04-13T08:35:17.482Z,11.18
2023-04-13T08:37:44.542Z,13.90
2023-04-13T08:40:12.202Z,13.40
2023-04-13T08:42:40.915Z,11.98
2023-04-13T08:45:09.223Z,14.05
2023-04-13T08:47:39.347Z,15.93
2023-04-13T08:50:07.655Z,13.55
2023-04-13T08:52:44.150Z,10.80
2023-04-13T08:55:15.694Z,11.82
2023-04-13T08:57:45.427Z,15.98
2023-04-13T09:00:16.281Z,12.50
2023-04-13T09:03:00.586Z,14.07
2023-04-13T09:05:31.744Z,11.73
2023-04-13T09:08:04.709Z,13.38
2023-04-13T09:10:31.657Z,12.30
2023-04-13T09:12:58.603Z,14.18
2023-04-13T09:15:25.894Z,20.27
2023-04-13T09:18:16.204Z,16.15
2023-04-13T09:21:00.184Z,17.08
2023-04-13T09:23:27.229Z,10.85
2023-04-13T09:26:07.908Z,12.60
2023-04-13T09:28:45.502Z,13.73
2023-04-13T09:31:13.856Z,12.40
2023-04-13T09:33:49.802Z,10.10
2023-04-13T09:38:45.404Z,13.00
2023-04-13T09:41:12.532Z,11.23
2023-04-13T09:43:39.697Z,11.07
2023-04-13T09:46:16.243Z,11.65
2023-04-13T09:48:46.418Z,10.88
2023-04-13T09:51:13.389Z,11.75
2023-04-13T09:53:42.986Z,18.25
2023-04-13T09:56:09.979Z,18.23
2023-04-13T09:58:47.160Z,15.55
2023-04-13T10:01:17.175Z,10.00
2023-04-13T10:03:44.422Z,11.00
2023-04-13T10:06:11.676Z,11.57
2023-04-13T10:08:46.361Z,13.10
2023-04-13T10:11:17.307Z,14.23
2023-04-13T10:13:58.198Z,12.52
2023-04-13T10:16:44.078Z,13.05
2023-04-13T10:19:18.377Z,13.52
2023-04-13T10:21:47.526Z,11.68
2023-04-13T10:24:14.705Z,10.55
2023-04-13T10:26:42.118Z,10.40
2023-04-13T10:29:11.601Z,12.75
2023-04-13T10:31:46.652Z,15.88
2023-04-13T10:34:27.671Z,15.10
2023-04-13T10:37:14.985Z,15.50
2023-04-13T10:39:42.074Z,13.65
2023-04-13T10:42:10.004Z,20.00
2023-04-13T10:44:49.700Z,11.73
2023-04-13T10:47:18.330Z,11.20
2023-04-13T10:49:46.802Z,12.15
2023-04-13T10:52:14.289Z,10.70
2023-04-13T10:54:41.981Z,12.73
2023-04-13T10:57:11.254Z,16.88
2023-04-13T10:59:57.185Z,17.10
2023-04-13T11:02:27.170Z,14.43
2023-04-13T11:04:54.318Z,12.55
2023-04-13T11:07:23.432Z,13.25
2023-04-13T11:09:53.477Z,13.10
2023-04-13T11:12:20.505Z,11.20
2023-04-13T11:14:47.974Z,10.32
2023-04-13T11:17:16.715Z,11.40
2023-04-13T11:19:53.883Z,14.65
2023-04-13T11:22:27.646Z,24.50
2023-04-13T11:25:08.579Z,18.50
2023-04-13T11:27:35.478Z,17.08
2023-04-13T11:30:06.754Z,24.60
2023-04-13T11:32:34.398Z,26.13
2023-04-13T11:35:12.287Z,23.83
2023-04-13T11:37:41.136Z,12.93
2023-04-13T11:40:20.432Z,12.82
2023-04-13T11:42:53.392Z,14.77
2023-04-13T11:45:22.485Z,14.55
2023-04-13T11:47:50.402Z,35.92
2023-04-13T11:50:18.056Z,26.27
2023-04-13T11:52:46.655Z,22.20
2023-04-13T11:55:22.541Z,26.10
2023-04-13T11:57:50.814Z,14.52
2023-04-13T12:00:21.560Z,13.65
2023-04-13T12:03:01.101Z,20.15
2023-04-13T12:05:31.547Z,24.25
2023-04-13T12:07:59.478Z,19.73
2023-04-13T12:10:38.342Z,15.07
2023-04-13T12:13:18.473Z,21.92
2023-04-13T12:16:07.776Z,24.02
2023-04-13T12:18:46.106Z,11.13
2023-04-13T12:21:16.442Z,10.38
2023-04-13T12:23:57.291Z,9.68
2023-04-13T12:29:14.407Z,11.13
2023-04-13T12:31:41.623Z,11.50
2023-04-13T12:34:08.633Z,13.85
2023-04-13T12:36:36.884Z,14.50
2023-04-13T12:39:04.601Z,12.45
2023-04-13T12:41:32.978Z,12.20
2023-04-13T12:44:00.104Z,11.93
2023-04-13T12:46:27.013Z,11.80
2023-04-13T12:48:54.189Z,17.40
2023-04-13T12:51:24.192Z,13.43
2023-04-13T12:53:51.259Z,15.18
2023-04-13T12:56:18.485Z,9.18
2023-04-13T12:58:45.479Z,12.75
2023-04-13T13:01:14.103Z,10.55
2023-04-13T13:03:41.465Z,14.98
2023-04-13T13:06:08.586Z,9.10
2023-04-13T13:08:38.365Z,10.13
2023-04-13T13:11:08.405Z,9.93
2023-04-13T13:13:35.972Z,10.43
2023-04-13T13:16:03.689Z,11.55
2023-04-13T13:18:42.709Z,13.77
2023-04-13T13:21:17.162Z,10.48
2023-04-13T13:23:45.449Z,13.02
2023-04-13T13:26:23.702Z,13.82
2023-04-13T13:28:52.350Z,10.63
2023-04-13T13:31:19.707Z,10.48
2023-04-13T13:33:46.948Z,8.95
2023-04-13T13:36:14.718Z,12.02
2023-04-13T13:38:43.121Z,9.40
2023-04-13T13:41:10.445Z,12.38
2023-04-13T13:43:38.041Z,13.38
2023-04-13T13:46:08.373Z,18.25
2023-04-13T13:48:37.745Z,12.50
2023-04-13T13:51:25.026Z,12.57
2023-04-13T13:53:51.910Z,13.68
2023-04-13T13:56:19.142Z,13.05
2023-04-13T13:58:46.149Z,14.02
2023-04-13T14:01:13.096Z,20.60
2023-04-13T14:03:40.117Z,16.73
2023-04-13T14:06:07.820Z,14.25
2023-04-13T14:08:35.038Z,17.95
2023-04-13T14:11:03.164Z,7.97
2023-04-13T14:13:31.128Z,11.15
2023-04-13T14:15:58.171Z,14.00
2023-04-13T14:18:25.218Z,5.95
2023-04-13T14:20:52.224Z,9.45
2023-04-13T14:23:19.152Z,17.65
2023-04-13T14:25:46.463Z,14.25
2023-04-13T14:28:14.728Z,9.98
2023-04-13T14:30:45.261Z,10.55
2023-04-13T14:33:14.746Z,7.07
2023-04-13T14:35:41.708Z,13.15
2023-04-13T14:38:08.673Z,6.35
2023-04-13T14:40:36.008Z,11.48
2023-04-13T14:43:02.963Z,12.77
2023-04-13T14:45:29.846Z,13.75
2023-04-13T14:47:56.766Z,10.35
2023-04-13T14:50:24.332Z,7.07
2023-04-13T14:52:52.431Z,8.45
2023-04-13T14:55:19.480Z,6.38
2023-04-13T14:57:47.293Z,17.30
2023-04-13T15:00:18.180Z,14.15
2023-04-13T15:02:45.391Z,12.77
2023-04-13T15:05:12.783Z,20.27
2023-04-13T15:07:40.290Z,7.32
2023-04-13T15:10:08.601Z,7.95
2023-04-13T15:12:35.655Z,10.65
2023-04-13T15:15:02.852Z,16.88
2023-04-13T15:17:30.840Z,18.02
2023-04-13T15:19:57.808Z,22.35
2023-04-13T15:22:24.857Z,14.02
2023-04-13T15:24:51.867Z,11.95
2023-04-13T15:27:18.795Z,9.23
2023-04-13T15:29:45.924Z,10.63
2023-04-13T15:32:12.854Z,10.02
2023-04-13T15:34:40.707Z,9.60
2023-04-13T15:37:07.689Z,12.75
2023-04-13T15:39:34.748Z,12.10
2023-04-13T15:42:02.381Z,9.00
2023-04-13T15:44:29.362Z,9.13
2023-04-13T15:46:56.324Z,21.35
2023-04-13T15:49:23.264Z,17.98
2023-04-13T15:51:50.211Z,22.00
2023-04-13T15:54:17.391Z,10.02
2023-04-13T15:56:44.407Z,7.82
2023-04-13T15:59:11.503Z,31.52
2023-04-13T16:01:48.726Z,15.38
2023-04-13T16:04:16.448Z,17.38
2023-04-13T16:06:43.637Z,10.32
2023-04-13T16:09:10.938Z,19.33
2023-04-13T16:11:42.258Z,28.48
2023-04-13T16:14:09.231Z,19.33
2023-04-13T16:16:46.916Z,17.77
2023-04-13T16:19:14.054Z,25.63
2023-04-13T16:21:44.030Z,38.42
2023-04-13T16:24:11.104Z,21.50
2023-04-13T16:26:38.227Z,12.35
2023-04-13T16:29:05.381Z,7.70
2023-04-13T16:31:32.473Z,6.03
2023-04-13T16:33:59.506Z,11.05
2023-04-13T16:36:27.413Z,13.77
2023-04-13T16:38:54.501Z,6.25
2023-04-13T16:41:21.412Z,6.03
2023-04-13T16:43:48.335Z,5.30
2023-04-13T16:46:16.209Z,9.85
2023-04-13T16:48:43.160Z,17.67
2023-04-13T16:51:10.068Z,16.48
2023-04-13T16:53:37.100Z,11.32
2023-04-13T16:56:04.119Z,10.88
2023-04-13T16:58:31.549Z,6.75
2023-04-13T17:00:58.926Z,12.13
2023-04-13T17:03:29.097Z,7.93
2023-04-13T17:05:56.408Z,7.72
2023-04-13T17:08:23.829Z,15.75
2023-04-13T17:10:54.403Z,10.40
2023-04-13T17:13:21.800Z,13.80
2023-04-13T17:15:48.876Z,6.13
2023-04-13T17:18:15.840Z,7.53
2023-04-13T17:20:42.733Z,12.60
2023-04-13T17:23:09.823Z,14.85
2023-04-13T17:25:41.474Z,6.72
2023-04-13T17:28:08.509Z,5.43
2023-04-13T17:30:35.788Z,9.48
2023-04-13T17:33:04.510Z,6.65
2023-04-13T17:35:31.545Z,10.38
2023-04-13T17:37:58.491Z,10.77
2023-04-13T17:40:25.587Z,12.07
2023-04-13T17:42:52.572Z,13.77
2023-04-13T17:45:19.731Z,12.52
2023-04-13T17:48:12.102Z,15.93
2023-04-13T17:50:39.200Z,14.60
2023-04-13T17:53:06.060Z,5.82
2023-04-13T17:55:36.223Z,7.78
2023-04-13T17:58:03.105Z,13.57
2023-04-13T18:00:30.202Z,7.57
2023-04-13T18:02:58.356Z,11.13
2023-04-13T18:05:26.678Z,18.10
2023-04-13T18:07:56.544Z,16.02
2023-04-13T18:10:24.653Z,18.05
2023-04-13T18:12:51.806Z,10.40
2023-04-13T18:15:18.735Z,17.08
2023-04-13T18:17:46.063Z,17.75
2023-04-13T18:20:13.103Z,18.52
2023-04-13T18:22:40.033Z,16.92
2023-04-13T18:25:07.220Z,9.75
2023-04-13T18:27:34.733Z,9.70
2023-04-13T18:30:01.870Z,13.75
2023-04-13T18:32:30.952Z,11.13
2023-04-13T18:34:58.203Z,18.35
2023-04-13T18:37:25.436Z,16.63
2023-04-13T18:39:53.981Z,21.85
2023-04-13T18:42:21.021Z,10.65
2023-04-13T18:44:48.071Z,12.88
2023-04-13T18:47:15.068Z,11.48
2023-04-13T18:49:42.068Z,11.95
2023-04-13T18:52:09.003Z,10.35
2023-04-13T18:54:36.586Z,15.30
2023-04-13T18:57:03.775Z,13.32
2023-04-13T18:59:30.802Z,9.30
2023-04-13T19:01:57.837Z,12.38
2023-04-13T19:04:25.097Z,12.68
2023-04-13T19:06:52.492Z,14.77
2023-04-13T19:09:19.508Z,12.05
2023-04-13T19:11:49.479Z,11.88
2023-04-13T19:14:16.561Z,11.27
2023-04-13T19:16:45.690Z,14.65
2023-04-13T19:19:15.836Z,16.20
2023-04-13T19:21:43.014Z,14.80
2023-04-13T19:24:13.099Z,18.38
2023-04-13T19:26:40.923Z,13.95
2023-04-13T19:29:12.680Z,13.00
2023-04-13T19:31:41.485Z,12.25
2023-04-13T19:34:08.984Z,11.20
2023-04-13T19:36:37.059Z,12.18
2023-04-13T19:39:05.803Z,6.78
2023-04-13T19:41:33.009Z,11.40
2023-04-13T19:44:00.701Z,15.07
2023-04-13T19:46:28.651Z,11.55
2023-04-13T19:48:58.873Z,16.75
2023-04-13T19:51:29.456Z,14.50
2023-04-13T19:53:57.727Z,17.88
2023-04-13T19:56:25.270Z,12.00
2023-04-13T19:58:55.324Z,13.27
2023-04-13T20:01:22.743Z,11.55
2023-04-13T20:03:50.269Z,12.77
2023-04-13T20:06:17.668Z,15.55
2023-04-13T20:08:45.000Z,11.45
2023-04-13T20:11:12.126Z,14.73
2023-04-13T20:13:39.846Z,10.18
2023-04-13T20:16:06.997Z,16.00
2023-04-13T20:18:34.116Z,21.40
2023-04-13T20:21:01.030Z,10.35
2023-04-13T20:23:29.842Z,25.08
2023-04-13T20:25:57.011Z,12.38
2023-04-13T20:28:24.151Z,11.13
2023-04-13T20:30:51.549Z,14.90
2023-04-13T20:33:18.561Z,13.52
2023-04-13T20:35:45.754Z,19.67
2023-04-13T20:38:14.212Z,13.30
2023-04-13T20:40:41.905Z,11.90
2023-04-13T20:43:11.000Z,15.18
2023-04-13T20:45:38.440Z,10.95
2023-04-13T20:50:36.541Z,13.85
2023-04-13T20:53:04.900Z,10.23
2023-04-13T20:55:32.555Z,15.73
2023-04-13T20:57:59.452Z,17.85
2023-04-13T21:00:27.606Z,17.98
2023-04-13T21:02:55.051Z,18.90
2023-04-13T21:05:22.478Z,17.88
2023-04-13T21:07:50.217Z,15.90
2023-04-13T21:10:17.816Z,13.38
2023-04-13T21:12:44.912Z,12.70
2023-04-13T21:15:12.022Z,20.75
2023-04-13T21:17:39.155Z,16.85
2023-04-13T21:20:08.943Z,12.80
2023-04-13T21:22:36.522Z,12.45
2023-04-13T21:25:04.148Z,12.05
2023-04-13T21:27:31.126Z,8.10
2023-04-13T21:29:58.964Z,10.98
2023-04-13T21:32:26.014Z,12.93
2023-04-13T21:34:55.110Z,9.80
2023-04-13T21:37:22.081Z,6.82
2023-04-13T21:39:49.094Z,8.18
2023-04-13T21:42:17.022Z,6.88
2023-04-13T21:44:43.990Z,10.43
2023-04-13T21:47:10.820Z,5.78
2023-04-13T21:49:37.727Z,6.93
2023-04-13T21:52:04.711Z,6.93
2023-04-13T21:54:31.653Z,7.45
2023-04-13T21:56:58.832Z,13.18
2023-04-13T21:59:27.402Z,4.13
2023-04-13T22:01:54.911Z,8.02
2023-04-13T22:04:22.286Z,9.52
2023-04-13T22:06:49.422Z,4.32
2023-04-13T22:09:16.541Z,6.60
2023-04-13T22:11:43.464Z,4.32
2023-04-13T22:14:10.820Z,6.10
2023-04-13T22:16:37.755Z,7.30
2023-04-13T22:19:04.718Z,7.57
2023-04-13T22:21:34.407Z,7.55
2023-04-13T22:24:01.330Z,7.57
2023-04-13T22:26:28.360Z,8.65
2023-04-13T22:28:55.735Z,11.35
2023-04-13T22:31:22.868Z,12.57
2023-04-13T22:33:49.801Z,14.20
2023-04-13T22:36:20.629Z,9.40
2023-04-13T22:38:47.983Z,7.20
2023-04-13T22:41:14.925Z,8.10
2023-04-13T22:43:41.879Z,9.52
2023-04-13T22:46:08.846Z,7.00
2023-04-13T22:48:36.082Z,9.48
2023-04-13T22:51:05.869Z,6.28
2023-04-13T22:53:32.961Z,7.40
2023-04-13T22:56:00.872Z,6.90
2023-04-13T22:58:28.077Z,7.93
2023-04-13T23:00:55.459Z,5.55
2023-04-13T23:03:22.640Z,6.82
2023-04-13T23:05:49.981Z,9.10
2023-04-13T23:08:17.001Z,7.55
2023-04-13T23:10:43.858Z,3.47
2023-04-13T23:13:10.957Z,6.13
2023-04-13T23:15:39.437Z,6.50
2023-04-13T23:18:06.539Z,10.85
2023-04-13T23:20:33.462Z,7.75
2023-04-13T23:23:00.521Z,11.45
2023-04-13T23:25:27.554Z,8.90
2023-04-13T23:27:54.588Z,5.70
2023-04-13T23:30:21.573Z,5.32
2023-04-13T23:32:48.496Z,5.95
2023-04-13T23:35:15.462Z,5.32
2023-04-13T23:37:43.533Z,6.75
2023-04-13T23:40:10.999Z,10.80
2023-04-13T23:42:39.337Z,7.53
2023-04-13T23:45:07.483Z,9.75
2023-04-13T23:47:34.544Z,7.00
2023-04-13T23:50:01.763Z,9.60
2023-04-13T23:52:29.483Z,10.57
2023-04-13T23:54:57.168Z,6.60
2023-04-13T23:57:24.111Z,7.40
2023-04-13T23:59:57.364Z,8.13
